Observations for Trim Market St
| Time | AQI | Temp °C | Hum % | Pres Pa | CO μg/m³ | H₂S μg/m³ | NO μg/m³ | NO₂ μg/m³ | O₃ μg/m³ | SO₂ μg/m³ | PM1 μg/m³ | PM2.5 μg/m³ | PM10 μg/m³ |
|---|---|---|---|---|---|---|---|---|---|---|---|---|---|
| Saturday 11 July 2026 | |||||||||||||
| 04:27 | 1 | 16.6 | 69 | 56,809 | 0.09 | 0 | 0 | 2.66 | 25.23 | 0 | 0 | 1.65 | 3.09 |
| 04:26 | 1 | 16.6 | 69 | 56,803 | 0.05 | 0 | 0.3 | 0 | 8.84 | 0 | 0.71 | 2.62 | 5 |
| 04:25 | 1 | 16.7 | 69 | 56,800 | 0.05 | 0 | 0 | 0 | 12.19 | 0 | 0.71 | 2.13 | 3.73 |
| 04:24 | 1 | 16.7 | 69 | 56,785 | 0.08 | 0 | 0 | 3.11 | 32.17 | 0 | 0.71 | 2.13 | 3.73 |
| 04:23 | 1 | 16.7 | 69 | 56,758 | 0.07 | 0 | 0 | 1.31 | 20.22 | 0 | 0.71 | 2.13 | 3.73 |
| 04:21 | 1 | 16.7 | 69 | 56,698 | 0.08 | 0 | 0 | 0 | 15.9 | 0 | 0 | 1.63 | 3.11 |
| 04:18 | 1 | 16.7 | 69 | 56,654 | 0.08 | 0 | 0 | 1.07 | 9.95 | 0 | 0 | 1.63 | 3.11 |
| 04:13 | 1 | 16.7 | 70 | 56,487 | 0.08 | 0 | 0 | 0.63 | 12.58 | 0 | 0 | 1.61 | 3.76 |
| 04:10 | 1 | 16.7 | 70 | 56,373 | 0.06 | 0 | 0 | 0.7 | 13.06 | 0 | 0 | 1.6 | 3.77 |
| 04:07 | 1 | 16.8 | 70 | 56,245 | 0.07 | 0 | 0 | 1.36 | 15.02 | 0 | 0 | 1.11 | 2.52 |
| 04:03 | 1 | 16.8 | 70 | 56,062 | 0.09 | 0 | 0 | 1.72 | 16.8 | 0 | 0 | 1.58 | 3.16 |
| 04:02 | 1 | 16.8 | 70 | 56,014 | 0.08 | 0 | 0.85 | 1.92 | 10.86 | 0 | 0 | 1.58 | 3.78 |
| 04:01 | 1 | 16.8 | 70 | 55,980 | 0.07 | 0 | 1.67 | 3.92 | 18.58 | 0 | 0 | 1.58 | 3.78 |
| 04:00 | 1 | 16.8 | 70 | 55,948 | 0.08 | 0 | 0 | 2.72 | 20.82 | 0 | 0.71 | 2.06 | 3.78 |
| 03:59 | 1 | 16.8 | 70 | 55,915 | 0.09 | 0 | 0 | 2.81 | 20.14 | 0 | 0 | 2.55 | 4.41 |
| 03:58 | 1 | 16.8 | 70 | 55,874 | 0.08 | 0 | 0.04 | 4.21 | 19.45 | 0 | 0.71 | 1.57 | 3.79 |
| 03:57 | 1 | 16.8 | 70 | 55,827 | 0.09 | 0 | 0.69 | 0.21 | 12.47 | 0 | 0.71 | 2.06 | 3.79 |
| 03:56 | 1 | 16.8 | 70 | 55,786 | 0.09 | 0 | 0 | 4.41 | 24.33 | 0 | 0 | 1.09 | 3.79 |
| 03:55 | 1 | 16.8 | 70 | 55,749 | 0.09 | 0 | 0 | 3.71 | 18.41 | 0 | 0 | 2.06 | 3.79 |
| 03:54 | 1 | 16.8 | 71 | 55,725 | 0.08 | 0 | 0 | 0 | 11.57 | 0 | 0 | 1.09 | 2.54 |